Nagasaki, Japan
Current Conditions -  °F | °C
As of 9:00 PM on Wednesday 22 Oct 2014 (Local Time) from RJFU Reporting Station
Broken Clouds Broken Clouds  
Wind Chill: 64°   Ceiling: 4500
Heat Index: 64°   Visibility: 6mi
Dew Point: 57°   Wind: 18mph
Humidity: 77%   Direction: 360°N
Pressure: 29.97"   Gusts: NA
Location:  32.75°N, 129.88°E
Report Text: RJFU 221200Z 36016KT 9999 FEW020 SCT030 BKN045 18/14 Q1015
Loading
Personal Weather Stations






























Interactive Weather Map
Tropical Storm Tracking
New forecast layout! Learn more

10-Day Weather Forecast

Advertisements
Track Severe Weather on mobile